Time;durP1;ratioP1;P1;durP2;ratioP2;P2;SDS_P1;SDS_P2;PMS_P1;PMS_P2;Temp;Humidity;BMP_temperature;BMP_pressure;BME280_temperature;BME280_humidity;BME280_pressure;Samples;Min_cycle;Max_cycle;Signal;HPM_P1;HPM_P2
2021/08/14 00:00:33;;;;;;;11.35;6.30;;;;;;;16.48;68.49;100893.23;1709941;82;22195;-74
2021/08/14 00:03:00;;;;;;;9.50;6.12;;;;;;;16.45;68.57;100897.05;1724704;82;21088;-74
2021/08/14 00:05:26;;;;;;;9.15;6.12;;;;;;;16.45;68.61;100900.20;1730021;82;20997;-74
2021/08/14 00:07:52;;;;;;;9.08;6.35;;;;;;;16.42;68.64;100907.17;1730959;82;21128;-75
2021/08/14 00:10:19;;;;;;;11.20;6.75;;;;;;;16.39;68.69;100907.44;1727910;82;20998;-74
2021/08/14 00:12:45;;;;;;;8.85;6.30;;;;;;;16.35;68.73;100904.24;1727258;82;21811;-74
2021/08/14 00:15:13;;;;;;;12.80;6.75;;;;;;;16.36;68.83;100911.74;1729037;82;20931;-74
2021/08/14 00:17:40;;;;;;;9.85;6.80;;;;;;;16.36;68.84;100912.58;1724834;82;21002;-74
2021/08/14 00:20:09;;;;;;;11.15;7.08;;;;;;;16.34;68.85;100911.06;1713031;82;21296;-74
2021/08/14 00:22:37;;;;;;;11.15;6.40;;;;;;;16.30;68.91;100910.48;1662480;85;21050;-74
2021/08/14 00:25:05;;;;;;;10.82;6.80;;;;;;;16.25;69.03;100910.10;1673547;85;22213;-74
2021/08/14 00:27:32;;;;;;;10.30;7.20;;;;;;;16.21;69.12;100912.69;1671680;85;21465;-74
2021/08/14 00:29:59;;;;;;;10.53;6.70;;;;;;;16.17;69.21;100917.48;1672004;85;21076;-74
2021/08/14 00:32:26;;;;;;;10.00;6.35;;;;;;;16.16;69.36;100918.97;1673909;85;21381;-74
2021/08/14 00:34:52;;;;;;;9.33;6.80;;;;;;;16.14;69.40;100919.61;1731193;82;21397;-74
2021/08/14 00:37:18;;;;;;;10.30;6.65;;;;;;;16.12;69.42;100923.75;1712653;82;21559;-73
2021/08/14 00:39:45;;;;;;;11.75;7.12;;;;;;;16.10;69.45;100922.20;1726076;82;21403;-73
2021/08/14 00:42:11;;;;;;;14.05;7.47;;;;;;;16.07;69.49;100919.83;1718472;82;21552;-74
2021/08/14 00:44:38;;;;;;;9.00;6.45;;;;;;;16.03;69.54;100925.95;1737329;82;21005;-74
2021/08/14 00:47:06;;;;;;;10.45;7.10;;;;;;;15.99;69.59;100921.87;1728116;82;21419;-74
2021/08/14 00:49:34;;;;;;;10.20;7.10;;;;;;;15.96;69.59;100923.01;1727402;82;22499;-74
2021/08/14 00:52:01;;;;;;;12.47;6.87;;;;;;;15.93;69.58;100920.64;1728023;82;21501;-74
2021/08/14 00:54:29;;;;;;;10.68;7.20;;;;;;;15.91;69.62;100925.25;1732746;82;20985;-72
2021/08/14 00:56:57;;;;;;;10.00;6.60;;;;;;;15.86;69.70;100916.86;1728750;82;21041;-73
2021/08/14 00:59:28;;;;;;;10.80;7.22;;;;;;;15.83;69.76;100926.48;1733479;82;21056;-73
2021/08/14 01:01:56;;;;;;;11.88;7.17;;;;;;;15.81;69.83;100924.91;1732904;82;21794;-73
2021/08/14 01:04:22;;;;;;;11.10;7.22;;;;;;;15.77;69.91;100923.53;1729155;82;20943;-72
2021/08/14 01:06:52;;;;;;;11.20;7.28;;;;;;;15.74;69.98;100920.17;1729886;82;21057;-73
2021/08/14 01:09:19;;;;;;;13.20;7.42;;;;;;;15.73;70.04;100922.98;1727010;82;21105;-73
2021/08/14 01:11:45;;;;;;;11.57;7.35;;;;;;;15.70;70.08;100916.09;1727578;82;21053;-73
2021/08/14 01:14:13;;;;;;;8.93;6.80;;;;;;;15.68;70.19;100917.23;1731043;82;22796;-73
2021/08/14 01:16:42;;;;;;;10.13;6.97;;;;;;;15.66;70.29;100917.86;1726486;82;20982;-74
2021/08/14 01:19:08;;;;;;;9.53;7.30;;;;;;;15.62;70.43;100920.44;1702407;82;21067;-73
2021/08/14 01:21:35;;;;;;;13.13;7.50;;;;;;;15.60;70.53;100923.25;1718287;82;20954;-73
2021/08/14 01:24:03;;;;;;;12.10;7.37;;;;;;;15.59;70.57;100920.70;1708062;83;21083;-73
2021/08/14 01:26:30;;;;;;;12.35;7.25;;;;;;;15.55;70.62;100915.32;1714871;82;21871;-73
2021/08/14 01:28:57;;;;;;;11.38;7.45;;;;;;;15.54;70.72;100912.28;1703783;83;20954;-73
2021/08/14 01:31:23;;;;;;;11.88;7.08;;;;;;;15.54;70.79;100910.95;1721383;82;20996;-73
2021/08/14 01:33:49;;;;;;;13.18;7.67;;;;;;;15.53;70.84;100918.59;1732757;82;21613;-73
2021/08/14 01:36:17;;;;;;;12.45;7.47;;;;;;;15.52;70.83;100912.92;1738017;82;21428;-73
2021/08/14 01:38:55;;;;;;;10.63;7.25;;;;;;;15.52;70.85;100919.58;1717821;82;21452;-72
2021/08/14 01:41:22;;;;;;;10.13;6.90;;;;;;;15.49;70.97;100917.20;1726736;82;21069;-73
2021/08/14 01:44:07;;;;;;;12.85;7.67;;;;;;;15.45;71.05;100920.16;1728056;82;21010;-73
2021/08/14 01:46:39;;;;;;;13.18;7.78;;;;;;;15.44;71.13;100914.48;1715515;82;21506;-73
2021/08/14 01:49:05;;;;;;;10.63;7.20;;;;;;;15.43;71.19;100915.92;1722298;82;21017;-73
2021/08/14 01:51:31;;;;;;;10.10;6.47;;;;;;;15.40;71.20;100915.72;1714264;82;22249;-74
2021/08/14 01:53:59;;;;;;;11.33;7.22;;;;;;;15.38;71.31;100913.70;1724049;82;21072;-74
2021/08/14 01:56:27;;;;;;;12.20;7.37;;;;;;;15.39;71.34;100911.87;1726912;82;20998;-73
2021/08/14 01:58:53;;;;;;;11.03;7.22;;;;;;;15.38;71.36;100911.04;1735889;82;21005;-73
2021/08/14 02:01:20;;;;;;;9.00;7.05;;;;;;;15.40;71.34;100912.22;1714336;82;21020;-73
2021/08/14 02:03:46;;;;;;;11.22;7.33;;;;;;;15.37;71.34;100914.69;1724418;82;22183;-73
2021/08/14 02:06:17;;;;;;;13.48;7.35;;;;;;;15.37;71.35;100913.84;1732340;82;21012;-74
2021/08/14 02:08:44;;;;;;;13.68;7.50;;;;;;;15.36;71.40;100922.81;1726528;82;21052;-73
2021/08/14 02:11:15;;;;;;;9.63;7.25;;;;;;;15.34;71.42;100920.75;1729940;82;21018;-73
2021/08/14 02:13:44;;;;;;;12.37;7.20;;;;;;;15.32;71.48;100921.39;1730371;82;20958;-73
2021/08/14 02:16:11;;;;;;;10.50;7.12;;;;;;;15.29;71.49;100921.19;1729401;82;21848;-73
2021/08/14 02:18:38;;;;;;;11.20;7.25;;;;;;;15.28;71.47;100919.51;1733224;82;21028;-73
2021/08/14 02:21:05;;;;;;;9.75;6.75;;;;;;;15.27;71.50;100927.64;1727217;82;20989;-73
2021/08/14 02:23:31;;;;;;;14.33;7.47;;;;;;;15.24;71.56;100927.89;1719960;82;21416;-73
2021/08/14 02:25:58;;;;;;;9.90;7.00;;;;;;;15.19;71.64;100932.31;1728868;82;20954;-73
2021/08/14 02:28:24;;;;;;;14.18;7.17;;;;;;;15.17;71.73;100934.28;1732788;82;21829;-74
2021/08/14 02:30:51;;;;;;;8.85;6.67;;;;;;;15.16;71.76;100936.09;1729632;82;21014;-73
2021/08/14 02:33:17;;;;;;;9.98;7.33;;;;;;;15.15;71.78;100940.20;1727409;82;20946;-74
2021/08/14 02:35:43;;;;;;;10.72;7.12;;;;;;;15.15;71.92;100938.41;1728934;82;21564;-73
2021/08/14 02:38:11;;;;;;;14.45;8.00;;;;;;;15.16;71.93;100939.25;1730925;82;21473;-73
2021/08/14 02:40:37;;;;;;;12.23;7.58;;;;;;;15.10;71.92;100936.63;1730342;82;21835;-73
2021/08/14 02:43:05;;;;;;;9.65;7.03;;;;;;;15.08;71.97;100937.27;1738473;82;21394;-74
2021/08/14 02:45:32;;;;;;;10.80;7.40;;;;;;;15.07;72.06;100943.57;1729934;82;21476;-74
2021/08/14 02:48:00;;;;;;;10.23;7.65;;;;;;;15.06;72.09;100939.72;1723565;82;21050;-73
2021/08/14 02:50:28;;;;;;;10.68;7.25;;;;;;;15.08;72.24;100943.08;1720901;82;21014;-74
2021/08/14 02:52:55;;;;;;;12.78;7.75;;;;;;;15.08;72.30;100939.09;1720413;82;22667;-73
2021/08/14 02:55:22;;;;;;;10.48;7.70;;;;;;;15.10;72.33;100935.80;1704459;82;21461;-74
2021/08/14 02:57:48;;;;;;;11.43;7.97;;;;;;;15.10;72.41;100937.97;1733284;82;21021;-73
2021/08/14 03:00:15;;;;;;;10.93;7.33;;;;;;;15.12;72.53;100942.66;1722413;82;20999;-74
2021/08/14 03:02:42;;;;;;;9.70;7.60;;;;;;;15.15;72.53;100945.52;1728786;82;21045;-73
2021/08/14 03:05:10;;;;;;;10.48;7.42;;;;;;;15.15;72.53;100946.85;1725331;82;22891;-75
2021/08/14 03:07:37;;;;;;;12.82;8.05;;;;;;;15.15;72.54;100953.05;1725125;82;21013;-74
2021/08/14 03:10:05;;;;;;;11.78;7.60;;;;;;;15.14;72.58;100947.34;1721409;82;20994;-73
2021/08/14 03:12:33;;;;;;;10.82;7.47;;;;;;;15.14;72.63;100947.83;1729546;82;20982;-74
2021/08/14 03:15:00;;;;;;;11.73;7.65;;;;;;;15.15;72.64;100945.06;1732483;82;21057;-74
2021/08/14 03:17:29;;;;;;;13.85;8.03;;;;;;;15.15;72.64;100940.20;1728275;82;21405;-74
2021/08/14 03:19:56;;;;;;;10.32;7.47;;;;;;;15.13;72.62;100947.48;1728993;82;21088;-74
2021/08/14 03:22:22;;;;;;;14.35;8.40;;;;;;;15.14;72.69;100943.84;1727881;82;21010;-74
2021/08/14 03:24:50;;;;;;;12.23;8.60;;;;;;;15.14;72.85;100947.34;1731851;82;21037;-74
2021/08/14 03:27:18;;;;;;;12.50;8.15;;;;;;;15.16;72.94;100945.90;1733500;82;20941;-74
2021/08/14 03:29:44;;;;;;;12.15;8.00;;;;;;;15.20;73.07;100950.45;1734989;82;21835;-74
2021/08/14 03:32:11;;;;;;;11.93;8.23;;;;;;;15.24;73.15;100951.84;1728939;82;20985;-75
2021/08/14 03:34:39;;;;;;;14.58;9.00;;;;;;;15.28;73.37;100950.60;1733464;82;21435;-74
2021/08/14 03:37:05;;;;;;;13.78;8.00;;;;;;;15.35;73.70;100948.59;1735978;82;21575;-74
2021/08/14 03:39:33;;;;;;;15.83;9.13;;;;;;;15.42;73.67;100945.70;1732364;82;21033;-74
2021/08/14 03:42:00;;;;;;;15.88;8.40;;;;;;;15.49;73.75;100949.15;1727235;82;23045;-74
2021/08/14 03:44:27;;;;;;;12.20;8.33;;;;;;;15.56;73.66;100956.94;1728133;82;20952;-74
2021/08/14 03:46:53;;;;;;;11.97;9.15;;;;;;;15.60;73.62;100957.86;1732770;82;20941;-74
2021/08/14 03:49:20;;;;;;;13.43;8.70;;;;;;;15.65;73.74;100957.46;1733734;82;21158;-74
2021/08/14 03:51:46;;;;;;;11.78;8.73;;;;;;;15.73;73.75;100964.27;1711643;82;20969;-74
2021/08/14 03:54:13;;;;;;;13.15;9.53;;;;;;;15.78;73.78;100959.34;1713215;82;22824;-76
2021/08/14 03:56:41;;;;;;;12.20;8.75;;;;;;;15.85;73.89;100956.47;1667392;83;21024;-74
2021/08/14 03:59:07;;;;;;;12.50;8.50;;;;;;;15.95;73.94;100960.45;1730042;81;21413;-74
2021/08/14 04:01:34;;;;;;;12.28;8.90;;;;;;;16.00;73.91;100957.70;1724751;82;20951;-74
2021/08/14 04:04:00;;;;;;;13.15;8.63;;;;;;;16.07;73.92;100963.30;1730224;82;20989;-74
2021/08/14 04:06:27;;;;;;;12.88;8.10;;;;;;;16.14;73.92;100960.42;1729439;82;22199;-75
2021/08/14 04:08:55;;;;;;;13.80;8.75;;;;;;;16.21;73.96;100958.87;1733983;82;20993;-74
2021/08/14 04:11:21;;;;;;;10.80;8.28;;;;;;;16.30;74.04;100963.80;1731338;82;21001;-74
2021/08/14 04:13:49;;;;;;;13.65;9.08;;;;;;;16.41;74.07;100965.48;1726240;82;21084;-74
2021/08/14 04:16:15;;;;;;;13.72;9.58;;;;;;;16.49;74.07;100965.08;1730235;82;20954;-74
2021/08/14 04:18:42;;;;;;;14.90;9.53;;;;;;;16.57;74.04;100969.19;1738801;82;21765;-75
2021/08/14 04:21:08;;;;;;;15.85;9.15;;;;;;;16.66;73.98;100965.30;1738647;82;21080;-75
2021/08/14 04:23:36;;;;;;;11.78;8.53;;;;;;;16.74;73.99;100973.45;1702178;83;20942;-74
2021/08/14 04:26:03;;;;;;;13.20;9.00;;;;;;;16.84;74.10;100972.91;1695494;83;21001;-75
2021/08/14 04:28:31;;;;;;;12.40;8.73;;;;;;;16.95;73.99;100970.05;1737960;82;21029;-74
2021/08/14 04:30:58;;;;;;;12.53;8.50;;;;;;;17.05;73.90;100963.32;1729160;82;22247;-74
2021/08/14 04:33:24;;;;;;;15.90;8.48;;;;;;;17.17;73.78;100966.13;1728743;81;20975;-74
2021/08/14 04:35:50;;;;;;;12.07;8.05;;;;;;;17.30;73.69;100967.11;1738941;82;21052;-74
2021/08/14 04:38:17;;;;;;;11.80;8.03;;;;;;;17.40;73.53;100963.88;1738062;82;20970;-74
2021/08/14 04:40:45;;;;;;;12.10;7.72;;;;;;;17.52;73.29;100957.31;1739105;82;20933;-74
2021/08/14 04:43:11;;;;;;;11.10;7.75;;;;;;;17.64;73.10;100953.91;1734941;82;22490;-74
2021/08/14 04:45:40;;;;;;;11.55;6.90;;;;;;;17.74;72.87;100963.55;1672728;85;21539;-75
2021/08/14 04:48:07;;;;;;;14.47;7.30;;;;;;;17.86;72.66;100964.67;1663117;86;21489;-76
2021/08/14 04:50:34;;;;;;;11.12;7.47;;;;;;;17.97;72.35;100963.09;1655647;86;21109;-74
2021/08/14 04:53:01;;;;;;;11.57;7.62;;;;;;;18.08;72.10;100958.83;1665204;86;21405;-74
2021/08/14 04:55:27;;;;;;;10.63;7.30;;;;;;;18.19;71.83;100961.73;1660400;85;22228;-74
2021/08/14 04:57:55;;;;;;;10.23;7.10;;;;;;;18.28;71.61;100962.97;1646579;85;20978;-74
2021/08/14 05:00:23;;;;;;;9.53;6.53;;;;;;;18.39;71.32;100969.05;1647608;83;20992;-75
2021/08/14 05:02:50;;;;;;;9.05;6.70;;;;;;;18.51;71.07;100959.25;1678123;83;21509;-76
2021/08/14 05:05:17;;;;;;;10.53;6.03;;;;;;;18.62;70.63;100962.14;1651999;84;21013;-74
2021/08/14 05:07:43;;;;;;;11.08;6.50;;;;;;;18.74;70.28;100965.44;1710403;82;21812;-75
2021/08/14 05:10:13;;;;;;;7.62;5.80;;;;;;;18.81;69.91;100963.27;1712236;83;20960;-74
2021/08/14 05:12:41;;;;;;;10.78;5.78;;;;;;;18.92;69.59;100962.67;1673623;85;21523;-74
2021/08/14 05:15:10;;;;;;;7.90;5.70;;;;;;;19.01;69.01;100952.30;1680069;84;21065;-74
2021/08/14 05:17:36;;;;;;;7.60;5.62;;;;;;;19.10;68.49;100952.16;1704303;82;20962;-74
2021/08/14 05:20:06;;;;;;;10.63;5.42;;;;;;;19.20;67.94;100952.02;1716869;82;20995;-74
2021/08/14 05:22:34;;;;;;;7.10;5.00;;;;;;;19.30;67.48;100954.08;1704324;83;21423;-74
2021/08/14 05:25:01;;;;;;;6.78;4.92;;;;;;;19.39;67.00;100953.06;1704745;84;20979;-74
2021/08/14 05:27:28;;;;;;;8.75;5.22;;;;;;;19.50;66.54;100954.61;1712214;83;21555;-75
2021/08/14 05:29:55;;;;;;;8.40;4.50;;;;;;;19.57;66.04;100951.62;1699789;82;21052;-74
2021/08/14 05:32:21;;;;;;;13.43;5.00;;;;;;;19.63;65.62;100944.27;1712128;82;21784;-75
2021/08/14 05:34:49;;;;;;;5.72;4.50;;;;;;;19.69;65.32;100942.77;1652090;85;21094;-75
2021/08/14 05:37:15;;;;;;;6.37;4.92;;;;;;;19.76;64.82;100950.45;1703336;83;20990;-75
2021/08/14 05:39:42;;;;;;;6.83;4.78;;;;;;;19.83;64.51;100947.45;1695459;83;21053;-73
2021/08/14 05:42:10;;;;;;;8.85;4.55;;;;;;;19.90;64.20;100947.12;1670473;84;20994;-74
2021/08/14 05:44:36;;;;;;;6.92;4.85;;;;;;;19.96;63.84;100946.42;1726715;82;21818;-73
2021/08/14 05:47:05;;;;;;;7.90;4.70;;;;;;;20.04;63.52;100946.09;1715948;82;20978;-74
2021/08/14 05:49:33;;;;;;;6.80;4.97;;;;;;;20.08;63.45;100948.28;1730299;82;20997;-75
2021/08/14 05:52:00;;;;;;;7.62;4.50;;;;;;;20.16;63.29;100951.43;1721791;82;21050;-75
2021/08/14 05:54:27;;;;;;;5.47;4.12;;;;;;;20.23;63.01;100955.11;1726563;81;20982;-75
2021/08/14 05:56:55;;;;;;;8.98;4.30;;;;;;;20.28;62.58;100954.11;1728431;82;20942;-73
2021/08/14 05:59:22;;;;;;;9.13;4.10;;;;;;;20.35;62.08;100952.91;1733872;82;20965;-75
2021/08/14 06:01:49;;;;;;;10.65;3.98;;;;;;;20.36;61.37;100949.21;1731898;82;21530;-74
2021/08/14 06:04:16;;;;;;;6.55;3.92;;;;;;;20.37;60.94;100951.75;1735084;82;21104;-73
2021/08/14 06:06:44;;;;;;;6.70;4.17;;;;;;;20.38;60.54;100946.72;1733639;82;21041;-74
2021/08/14 06:09:11;;;;;;;6.72;4.22;;;;;;;20.40;60.34;100951.40;1726896;82;22237;-74
2021/08/14 06:11:38;;;;;;;7.67;4.42;;;;;;;20.44;60.35;100942.52;1733227;82;20991;-74
2021/08/14 06:14:06;;;;;;;4.55;3.92;;;;;;;20.50;60.22;100946.70;1723070;82;20945;-73
2021/08/14 06:16:35;;;;;;;5.90;4.05;;;;;;;20.60;60.19;100939.80;1733985;82;21016;-73
2021/08/14 06:19:01;;;;;;;8.63;3.87;;;;;;;20.71;59.42;100938.58;1727301;82;20994;-71
2021/08/14 06:21:28;;;;;;;7.40;4.00;;;;;;;20.77;58.89;100944.61;1699905;82;22683;-73
2021/08/14 06:23:55;;;;;;;4.97;4.05;;;;;;;20.81;58.74;100953.46;1673331;85;21419;-72
2021/08/14 06:26:23;;;;;;;6.85;4.37;;;;;;;20.85;58.58;100944.06;1679993;85;21042;-72
2021/08/14 06:28:49;;;;;;;6.83;4.10;;;;;;;20.97;58.59;100949.88;1698736;84;21069;-72
2021/08/14 06:31:16;;;;;;;5.22;4.17;;;;;;;21.11;58.23;100941.56;1676357;85;21077;-79
2021/08/14 06:33:45;;;;;;;7.03;4.17;;;;;;;21.26;57.66;100943.00;1662832;84;20958;-71
2021/08/14 06:36:12;;;;;;;5.28;4.15;;;;;;;21.40;57.25;100938.23;1688106;84;21002;-72
2021/08/14 06:38:40;;;;;;;6.92;4.15;;;;;;;21.52;56.99;100944.88;1696614;82;21513;-72
2021/08/14 06:41:07;;;;;;;5.75;3.72;;;;;;;21.61;56.31;100938.91;1731438;82;20961;-74
2021/08/14 06:43:33;;;;;;;7.33;3.65;;;;;;;21.65;55.45;100940.24;1736421;82;21001;-72
2021/08/14 06:46:00;;;;;;;5.25;3.50;;;;;;;21.64;55.21;100934.03;1738591;80;22411;-71
2021/08/14 06:48:26;;;;;;;7.05;3.58;;;;;;;21.67;55.31;100939.03;1735404;82;21426;-71
2021/08/14 06:50:53;;;;;;;4.62;3.37;;;;;;;21.75;55.33;100939.99;1727712;82;20946;-72
2021/08/14 06:53:20;;;;;;;5.45;3.22;;;;;;;21.82;54.80;100943.13;1726280;82;22023;-72
2021/08/14 06:55:46;;;;;;;6.10;3.67;;;;;;;21.88;54.09;100947.77;1729707;82;20930;-74
2021/08/14 06:58:13;;;;;;;6.00;3.30;;;;;;;21.93;53.63;100955.30;1694787;83;22212;-75
2021/08/14 07:00:39;;;;;;;5.05;3.37;;;;;;;21.95;54.08;100948.72;1733233;82;21008;-71
2021/08/14 07:03:07;;;;;;;4.53;3.70;;;;;;;;;;1732364;82;20956;-72
2021/08/14 07:05:36;;;;;;;7.55;3.40;;;;;;;22.23;53.48;100957.06;1729493;82;20994;-72
2021/08/14 07:08:03;;;;;;;4.70;2.77;;;;;;;22.31;53.19;100951.28;1732167;82;21052;-72
2021/08/14 07:10:32;;;;;;;4.20;3.40;;;;;;;22.38;52.01;100960.27;1736604;82;20980;-72
2021/08/14 07:12:58;;;;;;;4.20;2.98;;;;;;;22.41;51.86;100954.53;1731089;82;21107;-72
2021/08/14 07:15:24;;;;;;;4.53;3.20;;;;;;;22.41;51.96;100959.91;1737100;82;21036;-73
2021/08/14 07:17:52;;;;;;;4.33;3.15;;;;;;;22.44;52.67;100951.45;1674204;85;21057;-72
2021/08/14 07:20:19;;;;;;;5.40;3.35;;;;;;;22.54;52.73;100951.50;1726710;82;21037;-71
2021/08/14 07:22:47;;;;;;;5.78;3.42;;;;;;;22.66;52.90;100955.91;1733230;82;21444;-71
2021/08/14 07:25:14;;;;;;;4.70;3.17;;;;;;;22.70;52.25;100958.56;1736039;82;20996;-71
2021/08/14 07:27:40;;;;;;;6.20;3.58;;;;;;;22.68;52.17;100953.02;1737111;82;20997;-71
2021/08/14 07:30:09;;;;;;;3.95;3.55;;;;;;;22.62;52.76;100954.62;1737273;82;20980;-71
2021/08/14 07:32:36;;;;;;;3.60;3.20;;;;;;;22.69;53.11;100954.72;1737039;82;20997;-71
2021/08/14 07:35:05;;;;;;;6.28;4.33;;;;;;;22.81;53.01;100950.52;1735095;82;21830;-71
2021/08/14 07:37:32;;;;;;;5.83;3.50;;;;;;;22.92;52.40;100952.77;1725025;82;20982;-71
2021/08/14 07:39:59;;;;;;;5.78;3.42;;;;;;;22.94;52.15;100953.92;1743914;81;21091;-71
2021/08/14 07:42:25;;;;;;;4.17;3.15;;;;;;;22.99;51.94;100952.85;1743661;82;20938;-71
2021/08/14 07:44:52;;;;;;;5.33;3.55;;;;;;;23.10;51.76;100944.28;1743359;81;21011;-71
2021/08/14 07:47:19;;;;;;;4.00;3.20;;;;;;;23.18;51.59;100946.86;1736751;82;21807;-71
2021/08/14 07:49:46;;;;;;;7.08;3.50;;;;;;;23.28;51.03;100941.16;1734827;82;20992;-71
2021/08/14 07:52:12;;;;;;;6.45;3.47;;;;;;;23.34;50.79;100943.08;1696982;83;21033;-71
2021/08/14 07:54:38;;;;;;;4.50;3.37;;;;;;;23.41;50.89;100943.98;1729806;82;21652;-70
2021/08/14 07:57:05;;;;;;;4.42;3.20;;;;;;;23.49;50.73;100943.03;1735359;82;21488;-71
2021/08/14 07:59:31;;;;;;;5.45;3.42;;;;;;;23.62;50.85;100941.84;1729531;82;21802;-72
2021/08/14 08:01:58;;;;;;;5.20;3.40;;;;;;;23.79;50.42;100937.84;1739409;82;21005;-70
2021/08/14 08:04:25;;;;;;;5.62;3.50;;;;;;;23.92;49.58;100928.50;1739467;82;20944;-74
2021/08/14 08:06:51;;;;;;;3.62;3.02;;;;;;;23.86;49.13;100932.00;1737987;82;20985;-71
2021/08/14 08:09:18;;;;;;;4.75;3.22;;;;;;;23.89;49.56;100932.95;1736069;82;20954;-73
2021/08/14 08:11:44;;;;;;;5.08;3.20;;;;;;;23.99;49.45;100938.84;1738789;81;22181;-73
2021/08/14 08:14:12;;;;;;;4.03;3.30;;;;;;;24.16;49.68;100935.34;1739131;82;21443;-73
2021/08/14 08:16:38;;;;;;;4.12;3.27;;;;;;;24.33;49.03;100926.98;1739610;82;22263;-73
2021/08/14 08:19:07;;;;;;;3.20;2.80;;;;;;;24.43;48.90;100926.10;1736554;82;20950;-73
2021/08/14 08:21:34;;;;;;;4.50;3.27;;;;;;;24.47;46.69;100934.11;1709513;82;20949;-73
2021/08/14 08:24:00;;;;;;;3.30;3.00;;;;;;;24.33;46.43;100929.16;1703842;83;21789;-73
2021/08/14 08:26:27;;;;;;;4.58;3.30;;;;;;;24.30;47.00;100930.84;1709522;82;21013;-73
2021/08/14 08:28:53;;;;;;;4.87;3.20;;;;;;;24.36;46.97;100928.75;1741639;82;21009;-73
2021/08/14 08:31:19;;;;;;;5.92;3.30;;;;;;;24.39;47.23;100928.34;1742793;82;21012;-73
2021/08/14 08:33:46;;;;;;;4.20;3.25;;;;;;;24.49;46.85;100926.63;1744749;82;20945;-73
2021/08/14 08:36:13;;;;;;;5.92;3.33;;;;;;;24.62;46.59;100925.89;1741788;82;21775;-74
2021/08/14 08:38:40;;;;;;;4.97;3.45;;;;;;;24.64;46.28;100928.70;1733323;82;21045;-73
2021/08/14 08:41:09;;;;;;;6.03;3.45;;;;;;;24.58;45.78;100921.91;1728218;82;20954;-73
2021/08/14 08:43:40;;;;;;;4.80;3.25;;;;;;;24.52;45.64;100923.55;1737285;82;21075;-74
2021/08/14 08:46:09;;;;;;;4.15;2.85;;;;;;;24.52;45.94;100926.25;1709605;83;20956;-72
2021/08/14 08:48:37;;;;;;;4.53;3.30;;;;;;;24.59;45.80;100917.64;1714118;82;21847;-72
2021/08/14 08:51:05;;;;;;;5.17;3.05;;;;;;;24.65;45.76;100913.33;1721001;81;20966;-72
2021/08/14 08:53:31;;;;;;;5.85;3.12;;;;;;;24.75;46.08;100909.73;1728045;82;21048;-72
2021/08/14 08:55:59;;;;;;;4.03;2.98;;;;;;;24.94;46.01;100907.63;1727546;82;20951;-72
2021/08/14 08:58:26;;;;;;;5.17;3.00;;;;;;;25.09;44.11;100901.58;1722954;82;20946;-71
2021/08/14 09:00:52;;;;;;;3.62;2.80;;;;;;;25.16;44.79;100904.27;1729495;82;22117;-71
2021/08/14 09:03:18;;;;;;;5.87;3.08;;;;;;;25.33;44.40;100902.03;1738497;81;20980;-71
2021/08/14 09:05:51;;;;;;;9.63;3.00;;;;;;;25.54;44.21;100903.19;1665408;84;20950;-71
2021/08/14 09:08:18;;;;;;;4.58;2.72;;;;;;;25.76;42.98;100898.95;1689552;84;20973;-72
2021/08/14 09:10:46;;;;;;;6.80;2.60;;;;;;;25.77;41.28;100899.27;1709854;83;21611;-72
2021/08/14 09:13:21;;;;;;;6.75;2.85;;;;;;;25.63;40.24;100899.77;1709451;83;22193;-72
2021/08/14 09:15:49;;;;;;;7.08;2.87;;;;;;;25.52;41.37;100889.57;1709566;83;21108;-72
2021/08/14 09:18:17;;;;;;;4.97;3.08;;;;;;;25.52;42.11;100889.05;1715852;82;21003;-71
2021/08/14 09:20:52;;;;;;;7.42;2.90;;;;;;;25.60;42.10;100883.96;1728808;82;20958;-71
2021/08/14 09:23:19;;;;;;;3.15;2.67;;;;;;;25.77;42.14;100891.15;1727788;83;20966;-71
2021/08/14 09:25:54;;;;;;;8.05;3.22;;;;;;;26.01;41.75;100886.98;1732848;82;21775;-71
2021/08/14 09:28:35;;;;;;;3.98;2.77;;;;;;;26.05;40.83;100879.56;1709337;83;21487;-71
2021/08/14 09:31:04;;;;;;;9.05;2.85;;;;;;;26.01;39.65;100875.62;1722249;82;20893;-72
2021/08/14 09:33:34;;;;;;;4.40;3.00;;;;;;;26.07;41.49;100876.67;1736601;82;20973;-72
2021/08/14 09:36:08;;;;;;;4.97;2.92;;;;;;;26.26;41.23;100877.15;1710168;82;21042;-72
2021/08/14 09:38:47;;;;;;;6.20;3.12;;;;;;;26.49;41.40;100881.58;1724068;82;22525;-72
2021/08/14 09:41:20;;;;;;;6.35;2.87;;;;;;;26.61;39.54;100870.89;1721909;82;20949;-72
2021/08/14 09:43:49;;;;;;;4.42;3.00;;;;;;;26.56;39.31;100874.78;1736824;81;21005;-72
2021/08/14 09:46:17;;;;;;;6.85;2.75;;;;;;;26.59;40.29;100869.45;1732344;82;21009;-73
2021/08/14 09:48:56;;;;;;;3.87;2.77;;;;;;;26.64;39.91;100863.71;1700809;84;21048;-72
2021/08/14 09:51:31;;;;;;;4.33;2.70;;;;;;;26.66;39.88;100860.78;1695179;82;22637;-72
2021/08/14 09:54:00;;;;;;;4.05;2.95;;;;;;;26.84;40.41;100847.88;1701596;84;20965;-72
2021/08/14 09:56:27;;;;;;;8.73;2.77;;;;;;;27.07;38.89;100850.87;1703469;83;21022;-72
2021/08/14 09:58:55;;;;;;;5.55;3.10;;;;;;;27.11;39.41;100850.73;1701472;83;20970;-73
2021/08/14 10:01:22;;;;;;;5.15;3.02;;;;;;;27.21;39.23;100847.02;1695697;82;21131;-72
2021/08/14 10:03:48;;;;;;;5.22;3.05;;;;;;;27.43;39.12;100845.31;1680280;84;21773;-71
2021/08/14 10:06:16;;;;;;;5.22;3.10;;;;;;;27.63;38.58;100838.66;1680158;84;21401;-73
2021/08/14 10:08:42;;;;;;;4.40;3.40;;;;;;;27.81;37.46;100837.90;1691593;84;21056;-72
2021/08/14 10:11:11;;;;;;;4.20;3.22;;;;;;;27.87;37.88;100836.98;1699831;83;21164;-73
2021/08/14 10:13:39;;;;;;;3.40;2.77;;;;;;;27.96;37.58;100837.52;1703419;84;21227;-73
2021/08/14 10:16:06;;;;;;;5.20;3.00;;;;;;;28.04;36.89;100833.69;1692468;83;21846;-72
2021/08/14 10:18:33;;;;;;;8.65;3.40;;;;;;;28.04;37.22;100835.88;1695784;84;21013;-75
2021/08/14 10:21:01;;;;;;;4.55;2.85;;;;;;;28.14;36.19;100828.56;1701717;84;21061;-73
2021/08/14 10:23:28;;;;;;;5.92;3.22;;;;;;;28.07;36.86;100831.34;1703942;84;21010;-73
2021/08/14 10:26:11;;;;;;;4.00;2.95;;;;;;;28.17;36.58;100830.28;1701035;83;21009;-74
2021/08/14 10:28:51;;;;;;;5.75;3.00;;;;;;;28.27;36.20;100825.68;1682785;84;21809;-73
2021/08/14 10:31:38;;;;;;;6.30;2.95;;;;;;;28.35;35.78;100827.30;1697987;83;20962;-71
2021/08/14 10:34:15;;;;;;;4.75;3.00;;;;;;;28.37;35.46;100826.00;1693922;82;20997;-71
2021/08/14 10:36:43;;;;;;;3.75;2.83;;;;;;;28.44;35.55;100824.58;1687581;84;21026;-71
2021/08/14 10:39:24;;;;;;;3.58;3.08;;;;;;;28.50;35.45;100827.22;1694862;82;21044;-73
2021/08/14 10:41:55;;;;;;;3.90;2.90;;;;;;;28.55;34.09;100823.80;1683281;84;21009;-73
2021/08/14 10:44:45;;;;;;;3.85;2.77;;;;;;;28.48;34.46;100821.19;1702565;83;21060;-73
2021/08/14 10:47:40;;;;;;;5.12;2.90;;;;;;;28.55;34.81;100814.28;1709235;82;21017;-71
2021/08/14 10:50:06;;;;;;;4.67;3.05;;;;;;;28.52;34.58;100816.11;1666745;84;21164;-73
2021/08/14 10:52:34;;;;;;;3.90;2.77;;;;;;;28.50;34.39;100816.34;1702098;82;21064;-72
2021/08/14 10:55:04;;;;;;;6.92;3.00;;;;;;;28.60;34.78;100817.69;1698090;82;21790;-70
2021/08/14 10:57:42;;;;;;;4.12;3.00;;;;;;;28.61;33.94;100807.94;1714595;82;21065;-70
2021/08/14 11:00:23;;;;;;;3.77;3.20;;;;;;;28.67;34.30;100810.28;1707569;82;21047;-70
2021/08/14 11:02:59;;;;;;;6.45;3.00;;;;;;;28.87;34.27;100807.28;1704491;84;21052;-71
2021/08/14 11:05:26;;;;;;;7.45;2.90;;;;;;;29.08;35.48;100808.12;1670016;86;21586;-71
2021/08/14 11:07:53;;;;;;;4.85;3.08;;;;;;;29.43;35.10;100801.36;1670473;85;21868;-71
2021/08/14 11:10:32;;;;;;;5.10;2.83;;;;;;;29.82;34.66;100804.47;1704978;83;21040;-71
2021/08/14 11:13:00;;;;;;;5.10;2.95;;;;;;;30.07;33.55;100802.34;1665738;86;20994;-70
2021/08/14 11:15:32;;;;;;;6.45;3.05;;;;;;;30.35;32.67;100800.73;1648807;86;20933;-71
2021/08/14 11:18:03;;;;;;;4.35;3.10;;;;;;;30.47;32.23;100802.87;1682089;84;21517;-71
2021/08/14 11:20:39;;;;;;;3.90;2.80;;;;;;;30.60;31.68;100799.05;1709084;82;21008;-72
2021/08/14 11:23:25;;;;;;;4.95;2.92;;;;;;;30.75;32.52;100797.45;1691842;83;20965;-71
2021/08/14 11:25:51;;;;;;;4.92;2.83;;;;;;;31.06;32.26;100797.98;1704814;84;21009;-73